Time;durP1;ratioP1;P1;durP2;ratioP2;P2;SDS_P1;SDS_P2;PMS_P1;PMS_P2;Temp;Humidity;BMP_temperature;BMP_pressure;BME280_temperature;BME280_humidity;BME280_pressure;Samples;Min_cycle;Max_cycle;Signal;HPM_P1;HPM_P2
2021/03/18 00:00:11;;;;;;;16.07;9.87;;;;;;;-0.51;87.36;101868.64;123377;1105;65039;-75
2021/03/18 00:02:38;;;;;;;13.63;8.57;;;;;;;-0.52;87.57;101866.94;123951;1105;64979;-75
2021/03/18 00:05:07;;;;;;;14.90;9.05;;;;;;;-0.53;87.76;101869.61;123328;1102;64918;-75
2021/03/18 00:07:35;;;;;;;14.20;8.30;;;;;;;-0.55;87.33;101856.67;123643;1102;64844;-74
2021/03/18 00:10:05;;;;;;;15.03;9.50;;;;;;;-0.55;88.14;101861.02;123482;1102;64924;-75
2021/03/18 00:12:31;;;;;;;21.60;10.70;;;;;;;-0.54;88.51;101858.34;123432;1105;65032;-75
2021/03/18 00:14:58;;;;;;;18.52;11.88;;;;;;;-0.52;88.26;101856.51;123384;1105;65226;-74
2021/03/18 00:17:24;;;;;;;19.77;11.60;;;;;;;-0.50;87.04;101857.28;123433;1105;64969;-77
2021/03/18 00:19:50;;;;;;;18.50;10.35;;;;;;;-0.48;87.02;101863.27;123411;1104;64940;-76
2021/03/18 00:22:16;;;;;;;14.17;9.07;;;;;;;-0.47;88.35;101859.75;123422;1106;64930;-77
2021/03/18 00:24:42;;;;;;;15.50;9.70;;;;;;;-0.45;88.46;101868.34;123404;1102;64959;-75
2021/03/18 00:27:11;;;;;;;17.10;9.77;;;;;;;-0.44;87.64;101870.02;123461;1102;64886;-76
2021/03/18 00:29:37;;;;;;;19.87;11.40;;;;;;;-0.42;88.26;101873.39;123482;1105;64914;-75
2021/03/18 00:32:04;;;;;;;23.57;13.47;;;;;;;-0.41;87.48;101866.41;123447;1104;64972;-78
2021/03/18 00:34:30;;;;;;;17.80;11.70;;;;;;;-0.41;87.17;101866.41;123397;1104;65703;-76
2021/03/18 00:36:59;;;;;;;18.23;9.43;;;;;;;-0.41;87.03;101864.64;123384;1102;64853;-77
2021/03/18 00:39:26;;;;;;;16.43;9.53;;;;;;;-0.44;88.21;101870.02;123394;1105;64939;-77
2021/03/18 00:41:52;;;;;;;15.95;9.20;;;;;;;-0.48;87.47;101870.24;123408;1102;64888;-77
2021/03/18 00:44:18;;;;;;;15.78;10.40;;;;;;;-0.52;87.85;101866.94;123422;1106;65710;-78
2021/03/18 00:46:44;;;;;;;21.87;11.63;;;;;;;-0.54;87.27;101863.55;123411;1104;64898;-76
2021/03/18 00:49:11;;;;;;;25.03;11.30;;;;;;;-0.56;87.28;101869.77;123379;1102;64917;-77
2021/03/18 00:51:37;;;;;;;18.90;11.87;;;;;;;-0.57;87.94;101866.33;123429;1102;64957;-78
2021/03/18 00:54:04;;;;;;;21.20;11.77;;;;;;;-0.58;88.70;101862.02;123405;1105;64927;-76
2021/03/18 00:56:30;;;;;;;20.40;12.17;;;;;;;-0.59;87.73;101860.34;123370;1105;64875;-76
2021/03/18 00:58:56;;;;;;;17.40;10.37;;;;;;;-0.60;89.23;101861.24;123455;1102;64911;-77
2021/03/18 01:01:24;;;;;;;17.30;9.70;;;;;;;-0.61;88.65;101862.17;123388;1106;64885;-77
2021/03/18 01:03:51;;;;;;;15.25;8.88;;;;;;;-0.65;87.90;101861.47;123506;1103;64950;-77
2021/03/18 01:06:23;;;;;;;18.05;12.55;;;;;;;-0.65;87.91;101860.63;123397;1102;65270;-75
2021/03/18 01:08:51;;;;;;;21.73;12.30;;;;;;;-0.67;88.41;101865.91;123689;1105;64905;-76
2021/03/18 01:11:20;;;;;;;23.83;12.03;;;;;;;-0.66;88.43;101869.35;123614;1105;65595;-76
2021/03/18 01:13:59;;;;;;;18.67;11.07;;;;;;;-0.66;88.77;101864.14;123716;1102;64978;-76
2021/03/18 01:16:32;;;;;;;13.50;8.55;;;;;;;-0.69;87.99;101878.16;123439;1105;65247;-76
2021/03/18 01:19:02;;;;;;;17.07;10.27;;;;;;;-0.69;88.83;101864.30;123619;1105;64895;-76
2021/03/18 01:21:38;;;;;;;17.17;9.27;;;;;;;-0.71;89.04;101879.16;123499;1105;64969;-77
2021/03/18 01:24:05;;;;;;;21.97;13.03;;;;;;;-0.71;89.19;101871.34;123417;1102;64863;-74
2021/03/18 01:26:32;;;;;;;21.77;11.93;;;;;;;-0.74;88.22;101856.71;123378;1102;65885;-75
2021/03/18 01:28:59;;;;;;;22.17;12.40;;;;;;;-0.75;88.80;101864.59;123452;1105;66362;-75
2021/03/18 01:31:26;;;;;;;20.50;11.85;;;;;;;-0.76;88.97;101865.52;123387;1105;64956;-76
2021/03/18 01:33:52;;;;;;;14.70;9.17;;;;;;;-0.76;89.90;101862.92;123397;1105;64911;-77
2021/03/18 01:36:19;;;;;;;14.80;9.13;;;;;;;-0.78;89.60;101862.14;123329;1105;64895;-74
2021/03/18 01:38:47;;;;;;;17.35;10.85;;;;;;;-0.80;89.06;101866.58;123372;1102;64959;-74
2021/03/18 01:41:15;;;;;;;21.17;11.90;;;;;;;-0.80;90.35;101858.77;123370;1106;66134;-76
2021/03/18 01:43:43;;;;;;;23.85;13.00;;;;;;;-0.79;90.38;101844.81;123492;1106;64981;-77
2021/03/18 01:46:10;;;;;;;25.83;12.83;;;;;;;-0.77;89.44;101850.79;123422;1102;65347;-78
2021/03/18 01:48:36;;;;;;;31.07;13.03;;;;;;;-0.75;90.14;101859.38;123623;1102;65330;-78
2021/03/18 01:51:04;;;;;;;24.10;13.33;;;;;;;-0.70;91.30;101847.83;123405;1105;65039;-77
2021/03/18 01:53:30;;;;;;;21.23;11.80;;;;;;;-0.64;90.81;101847.54;123405;1103;64953;-77
2021/03/18 01:55:58;;;;;;;17.43;10.87;;;;;;;-0.57;92.35;101848.08;123393;1105;64914;-76
2021/03/18 01:58:25;;;;;;;14.83;10.13;;;;;;;-0.53;90.65;101854.84;123598;1105;64915;-76
2021/03/18 02:00:55;;;;;;;15.70;10.67;;;;;;;-0.51;90.62;101847.78;123509;1102;64867;-76
2021/03/18 02:03:22;;;;;;;22.57;13.17;;;;;;;-0.48;90.92;101844.18;123566;1105;64891;-74
2021/03/18 02:05:50;;;;;;;23.17;11.63;;;;;;;-0.45;90.24;101847.48;123412;1105;64908;-78
2021/03/18 02:08:17;;;;;;;24.70;12.10;;;;;;;-0.43;91.41;101840.41;123509;1105;64982;-76
2021/03/18 02:10:43;;;;;;;23.23;13.07;;;;;;;-0.40;90.66;101839.44;123504;1102;64879;-77
2021/03/18 02:13:12;;;;;;;24.47;13.67;;;;;;;-0.38;90.47;101839.34;123390;1105;65224;-75
2021/03/18 02:15:46;;;;;;;17.77;9.93;;;;;;;-0.37;90.96;101839.27;123395;1105;64897;-75
2021/03/18 02:18:38;;;;;;;16.57;9.60;;;;;;;-0.39;91.16;101835.89;123427;1102;64965;-77
2021/03/18 02:21:42;;;;;;;19.37;10.40;;;;;;;-0.40;90.94;101829.01;123423;1105;64946;-77
2021/03/18 02:24:14;;;;;;;22.15;12.70;;;;;;;-0.38;90.89;101821.95;123453;1102;64895;-76
2021/03/18 02:27:10;;;;;;;26.37;13.73;;;;;;;-0.40;90.79;101823.80;123448;1102;64889;-76
2021/03/18 02:29:59;;;;;;;24.13;12.40;;;;;;;-0.41;91.57;101812.50;123394;1105;64936;-74
2021/03/18 02:33:06;;;;;;;29.17;14.60;;;;;;;-0.42;90.64;101816.05;123424;1105;64888;-75
2021/03/18 02:35:37;;;;;;;16.60;10.40;;;;;;;-0.45;91.43;101816.20;123313;1102;65248;-74
2021/03/18 02:38:09;;;;;;;17.80;10.27;;;;;;;-0.50;90.01;101802.55;123458;1102;64946;-75
2021/03/18 02:40:46;;;;;;;21.87;12.17;;;;;;;-0.52;90.98;101804.38;123380;1105;64940;-76
2021/03/18 02:43:16;;;;;;;28.63;14.13;;;;;;;-0.54;91.31;101801.00;123568;1105;64988;-76
2021/03/18 02:45:49;;;;;;;24.50;14.80;;;;;;;-0.56;91.41;101792.41;123533;1105;64925;-75
2021/03/18 02:48:26;;;;;;;27.70;14.10;;;;;;;-0.57;90.12;101782.06;123564;1102;64911;-76
2021/03/18 02:50:53;;;;;;;20.70;12.07;;;;;;;-0.60;90.91;101784.83;123502;1105;65709;-76
2021/03/18 02:53:22;;;;;;;21.57;11.90;;;;;;;-0.64;90.56;101785.00;123926;1106;64911;-75
2021/03/18 02:55:50;;;;;;;21.53;12.20;;;;;;;-0.66;90.33;101775.55;126944;1105;63015;-77
2021/03/18 02:58:21;;;;;;;23.25;11.35;;;;;;;-0.68;90.61;101779.98;123822;1105;65680;-76
2021/03/18 03:00:54;;;;;;;23.75;13.20;;;;;;;-0.70;91.64;101780.08;123631;1105;65890;-76
2021/03/18 03:03:40;;;;;;;25.33;14.23;;;;;;;-0.72;90.50;101781.92;123237;1102;64894;-77
2021/03/18 03:06:09;;;;;;;29.03;14.93;;;;;;;-0.74;90.74;101773.33;123516;1105;65456;-76
2021/03/18 03:08:36;;;;;;;25.45;14.25;;;;;;;-0.76;91.37;101788.20;123340;1102;65084;-77
2021/03/18 03:11:04;;;;;;;18.77;11.23;;;;;;;-0.79;90.88;101779.67;123288;1105;65330;-75
2021/03/18 03:13:33;;;;;;;19.95;11.45;;;;;;;-0.83;91.96;101778.97;123336;1102;65881;-76
2021/03/18 03:16:02;;;;;;;21.40;12.50;;;;;;;-0.88;91.16;101778.36;123492;1104;65344;-77
2021/03/18 03:18:30;;;;;;;25.50;12.80;;;;;;;-0.90;91.17;101777.59;123542;1105;64917;-76
2021/03/18 03:20:59;;;;;;;28.43;15.70;;;;;;;-0.93;91.15;101789.02;123333;1105;65320;-75
2021/03/18 03:23:27;;;;;;;27.23;14.77;;;;;;;-0.95;91.20;101783.03;123479;1102;64914;-76
2021/03/18 03:25:56;;;;;;;30.15;15.65;;;;;;;-0.96;90.83;101783.93;123600;1102;64905;-76
2021/03/18 03:28:25;;;;;;;25.17;15.63;;;;;;;-0.96;90.79;101783.09;123562;1102;64883;-75
2021/03/18 03:30:52;;;;;;;26.50;13.80;;;;;;;-0.98;92.07;101790.97;123486;1102;64883;-76
2021/03/18 03:33:18;;;;;;;20.00;11.70;;;;;;;-1.00;91.20;101787.59;123565;1102;65705;-76
2021/03/18 03:35:45;;;;;;;20.47;13.10;;;;;;;-1.04;91.69;101780.88;123445;1105;64895;-75
2021/03/18 03:38:11;;;;;;;24.97;14.73;;;;;;;-1.07;92.07;101781.00;123413;1102;64984;-75
2021/03/18 03:40:38;;;;;;;26.83;15.77;;;;;;;-1.09;91.06;101782.84;123368;1102;64937;-75
2021/03/18 03:43:05;;;;;;;25.57;14.80;;;;;;;-1.12;91.43;101781.23;123415;1102;64961;-74
2021/03/18 03:45:32;;;;;;;30.30;17.43;;;;;;;-1.14;90.76;101779.63;123474;1104;65132;-75
2021/03/18 03:47:59;;;;;;;31.65;17.20;;;;;;;-1.16;91.00;101782.29;123605;1106;65895;-74
2021/03/18 03:50:32;;;;;;;20.80;12.75;;;;;;;-1.19;90.67;101779.84;123655;1105;64882;-77
2021/03/18 03:53:27;;;;;;;23.07;12.83;;;;;;;-1.21;91.59;101778.20;123473;1105;65320;-76
2021/03/18 03:56:09;;;;;;;20.13;12.47;;;;;;;-1.25;91.14;101783.56;123495;1105;64850;-75
2021/03/18 03:58:46;;;;;;;25.43;14.40;;;;;;;-1.26;90.91;101781.86;123349;1105;65014;-76
2021/03/18 04:01:23;;;;;;;30.00;15.40;;;;;;;-1.27;91.73;101774.98;123301;1105;64943;-77
2021/03/18 04:03:53;;;;;;;27.97;15.50;;;;;;;-1.28;92.08;101783.69;123517;1105;64934;-77
2021/03/18 04:06:21;;;;;;;26.53;14.57;;;;;;;-1.30;91.82;101779.48;123503;1105;64972;-76
2021/03/18 04:08:50;;;;;;;18.60;12.30;;;;;;;-1.33;91.84;101769.23;123322;1105;64953;-77
2021/03/18 04:11:18;;;;;;;22.15;13.00;;;;;;;-1.35;92.63;101766.69;123416;1102;65708;-76
2021/03/18 04:13:46;;;;;;;34.70;17.00;;;;;;;-1.35;91.04;101771.05;123662;1105;64931;-77
2021/03/18 04:16:13;;;;;;;29.40;16.30;;;;;;;-1.37;90.95;101773.72;123376;1105;64902;-75
2021/03/18 04:18:42;;;;;;;26.37;16.87;;;;;;;-1.39;91.04;101770.34;123360;1105;64909;-76
2021/03/18 04:21:11;;;;;;;28.10;15.93;;;;;;;-1.40;92.00;101762.59;123396;1105;65362;-76
2021/03/18 04:23:38;;;;;;;22.70;13.80;;;;;;;-1.42;91.17;101773.11;123449;1105;65610;-76
2021/03/18 04:26:09;;;;;;;22.27;14.07;;;;;;;-1.44;91.64;101764.52;123432;1105;64996;-74
2021/03/18 04:28:36;;;;;;;24.93;15.40;;;;;;;-1.47;92.55;101762.05;123412;1105;64961;-75
2021/03/18 04:31:06;;;;;;;31.17;16.00;;;;;;;-1.49;91.61;101767.34;123585;1105;64991;-76
2021/03/18 04:33:34;;;;;;;32.90;18.43;;;;;;;-1.50;92.51;101767.41;123475;1102;65020;-74
2021/03/18 04:36:03;;;;;;;34.63;18.83;;;;;;;-1.51;91.27;101766.56;123524;1105;64945;-75
2021/03/18 04:38:30;;;;;;;33.80;17.43;;;;;;;-1.51;92.05;101765.70;123581;1102;64908;-75
2021/03/18 04:40:57;;;;;;;21.97;13.57;;;;;;;-1.53;91.95;101771.00;123633;1104;65043;-76
2021/03/18 04:43:24;;;;;;;25.53;15.13;;;;;;;-1.53;92.50;101764.92;123418;1102;64892;-74
2021/03/18 04:45:53;;;;;;;36.65;18.55;;;;;;;-1.52;93.09;101769.23;123390;1105;65512;-78
2021/03/18 04:48:20;;;;;;;38.10;20.40;;;;;;;-1.51;92.59;101761.36;123549;1104;65000;-77
2021/03/18 04:50:47;;;;;;;35.07;19.43;;;;;;;-1.49;91.87;101761.27;123502;1102;66114;-77
2021/03/18 04:53:14;;;;;;;36.50;20.20;;;;;;;-1.47;93.50;101762.05;123397;1105;64920;-74
2021/03/18 04:55:41;;;;;;;33.30;18.27;;;;;;;-1.45;92.51;101761.05;123460;1102;65221;-75
2021/03/18 04:58:10;;;;;;;26.53;15.93;;;;;;;-1.41;92.46;101755.72;123427;1105;65710;-76
2021/03/18 05:00:39;;;;;;;25.43;15.33;;;;;;;-1.40;93.45;101758.27;123478;1105;64984;-75
2021/03/18 05:03:11;;;;;;;34.13;16.23;;;;;;;-1.38;92.38;101746.02;123514;1103;65189;-76
2021/03/18 05:05:38;;;;;;;32.90;18.50;;;;;;;-1.35;93.15;101756.27;123493;1102;64895;-76
2021/03/18 05:08:06;;;;;;;41.43;21.80;;;;;;;-1.31;92.58;101749.17;123420;1102;64955;-76
2021/03/18 05:10:40;;;;;;;35.67;20.00;;;;;;;-1.26;93.13;101755.83;123431;1103;64949;-76
2021/03/18 05:13:09;;;;;;;36.97;19.17;;;;;;;-1.20;94.85;101751.27;123789;1105;64937;-75
2021/03/18 05:15:38;;;;;;;25.10;15.70;;;;;;;-1.17;93.61;101751.98;123566;1105;64927;-78
2021/03/18 05:18:09;;;;;;;29.60;15.03;;;;;;;-1.13;93.94;101747.45;123493;1104;64914;-75
2021/03/18 05:20:37;;;;;;;41.60;17.07;;;;;;;-1.13;93.29;101742.23;123516;1105;65708;-76
2021/03/18 05:23:06;;;;;;;20.13;10.20;;;;;;;-1.12;93.79;101752.59;123426;1105;65217;-76
2021/03/18 05:25:32;;;;;;;16.47;8.97;;;;;;;-1.11;95.17;101748.22;123490;1105;64950;-77
2021/03/18 05:28:00;;;;;;;18.20;8.27;;;;;;;-1.11;94.75;101748.22;123410;1105;64966;-75
2021/03/18 05:30:27;;;;;;;13.15;6.95;;;;;;;-1.13;95.75;101750.05;123373;1103;65728;-75
2021/03/18 05:32:54;;;;;;;38.83;20.57;;;;;;;-1.13;95.13;101743.07;123360;1104;64886;-77
2021/03/18 05:35:35;;;;;;;24.03;12.30;;;;;;;-1.13;94.94;101744.84;123307;1105;64975;-75
2021/03/18 05:38:01;;;;;;;19.13;9.73;;;;;;;-1.14;94.61;101748.37;123402;1102;64924;-75
2021/03/18 05:40:28;;;;;;;27.95;14.80;;;;;;;-1.13;95.96;101750.88;123326;1105;64937;-78
2021/03/18 05:43:02;;;;;;;42.60;19.00;;;;;;;-1.10;95.10;101755.13;123267;1105;64851;-77
2021/03/18 05:45:29;;;;;;;;;;;;;;;-1.10;95.24;101750.75;123266;1105;65242;-77
2021/03/18 05:47:57;;;;;;;31.60;16.47;;;;;;;-1.07;95.01;101747.98;123283;1105;64898;-77
2021/03/18 05:50:29;;;;;;;26.57;12.30;;;;;;;-1.07;95.25;101744.55;123300;1104;65097;-78
2021/03/18 05:52:58;;;;;;;30.37;13.83;;;;;;;-1.06;95.40;101747.09;123255;1105;65227;-76
2021/03/18 05:55:25;;;;;;;17.75;7.35;;;;;;;-1.05;94.84;101742.72;123411;1105;64920;-77
2021/03/18 05:57:52;;;;;;;35.05;15.40;;;;;;;-1.01;95.53;101743.42;123498;1102;65713;-76
2021/03/18 06:00:19;;;;;;;32.35;16.65;;;;;;;-0.98;94.83;101746.70;123412;1105;64976;-76
2021/03/18 06:02:49;;;;;;;26.83;13.50;;;;;;;-0.96;94.33;101747.47;123289;1106;64966;-75
2021/03/18 06:05:17;;;;;;;36.07;14.63;;;;;;;-0.96;95.25;101741.42;123552;1106;64908;-77
2021/03/18 06:07:46;;;;;;;17.33;7.27;;;;;;;-0.97;94.22;101750.17;123333;1105;64925;-76
2021/03/18 06:10:18;;;;;;;27.37;13.80;;;;;;;-1.03;94.42;101751.30;123461;1105;64918;-77
2021/03/18 06:12:49;;;;;;;40.83;19.07;;;;;;;-1.05;95.45;101755.73;123363;1105;64918;-77
2021/03/18 06:15:17;;;;;;;22.57;9.83;;;;;;;-1.06;93.93;101746.25;123432;1105;64889;-76
2021/03/18 06:17:43;;;;;;;23.83;11.10;;;;;;;-1.01;94.34;101738.21;123380;1105;65680;-74
2021/03/18 06:20:21;;;;;;;24.63;12.17;;;;;;;-0.98;94.47;101749.30;123387;1105;64901;-76
2021/03/18 06:22:49;;;;;;;26.47;13.87;;;;;;;-0.95;93.95;101738.75;123396;1102;64923;-76
2021/03/18 06:25:23;;;;;;;23.07;11.70;;;;;;;-0.89;94.74;101733.25;123355;1105;64949;-76
2021/03/18 06:28:09;;;;;;;14.93;6.17;;;;;;;-0.88;94.80;101741.89;123771;1102;65055;-75
2021/03/18 06:30:36;;;;;;;20.37;8.60;;;;;;;-0.88;95.01;101739.30;123315;1103;66126;-73
2021/03/18 06:33:24;;;;;;;10.77;4.80;;;;;;;-0.84;94.08;101730.41;123384;1102;64859;-76
2021/03/18 06:35:50;;;;;;;23.85;11.80;;;;;;;-0.78;94.79;101737.09;123418;1102;65351;-76
2021/03/18 06:38:28;;;;;;;22.60;10.90;;;;;;;-0.74;94.77;101734.25;123639;1103;64989;-76
2021/03/18 06:40:55;;;;;;;21.63;11.50;;;;;;;-0.66;94.06;101734.72;123405;1103;64931;-76
2021/03/18 06:43:43;;;;;;;17.73;10.20;;;;;;;-0.64;93.61;101726.80;123519;1105;64953;-77
2021/03/18 06:46:19;;;;;;;10.47;5.67;;;;;;;-0.64;93.76;101726.80;123531;1105;64924;-78
2021/03/18 06:48:47;;;;;;;17.60;9.07;;;;;;;-0.64;93.26;101732.88;123383;1105;64898;-73
2021/03/18 06:51:19;;;;;;;23.07;13.40;;;;;;;-0.56;93.13;101732.47;123406;1102;64937;-72
2021/03/18 06:53:45;;;;;;;29.50;15.13;;;;;;;-0.48;93.19;101732.93;123488;1102;64941;-74
2021/03/18 06:56:26;;;;;;;25.77;13.27;;;;;;;-0.37;94.68;101729.77;123380;1104;65712;-73
2021/03/18 06:58:53;;;;;;;19.13;11.53;;;;;;;-0.32;92.69;101726.92;123398;1106;64984;-74
2021/03/18 07:01:25;;;;;;;20.27;11.40;;;;;;;-0.23;93.03;101726.47;123600;1106;64915;-78
2021/03/18 07:04:01;;;;;;;11.80;6.13;;;;;;;-0.24;92.38;101735.20;123484;1103;65728;-73
2021/03/18 07:06:52;;;;;;;19.50;11.63;;;;;;;-0.23;93.13;101727.30;123477;1102;64989;-77
2021/03/18 07:09:18;;;;;;;19.30;11.73;;;;;;;-0.19;92.99;101735.83;123464;1102;65709;-78
2021/03/18 07:11:47;;;;;;;18.33;9.97;;;;;;;-0.17;92.18;101736.59;123425;1102;64921;-78
2021/03/18 07:14:14;;;;;;;21.93;13.07;;;;;;;-0.15;92.25;101739.95;123964;1105;64917;-78
2021/03/18 07:16:46;;;;;;;20.33;8.67;;;;;;;-0.12;92.96;101741.56;123502;1102;66105;-80
2021/03/18 07:19:21;;;;;;;15.47;8.63;;;;;;;-0.14;92.78;101746.84;123665;1105;64894;-82
2021/03/18 07:21:48;;;;;;;10.13;5.80;;;;;;;-0.16;91.92;101738.25;123446;1106;64992;-76
2021/03/18 07:24:21;;;;;;;19.60;11.20;;;;;;;-0.14;91.97;101730.36;123335;1102;65251;-75
2021/03/18 07:26:47;;;;;;;10.43;4.93;;;;;;;-0.16;92.26;101740.86;123410;1105;65250;-76
2021/03/18 07:29:21;;;;;;;7.20;4.07;;;;;;;-0.16;93.19;101737.42;123458;1102;64885;-76
2021/03/18 07:31:49;;;;;;;18.27;10.82;;;;;;;-0.14;92.08;101739.02;123291;1105;64943;-76
2021/03/18 07:34:16;;;;;;;8.50;4.75;;;;;;;-0.16;93.01;101733.05;123402;1105;64908;-74
2021/03/18 07:36:47;;;;;;;19.47;11.17;;;;;;;-0.15;92.17;101737.35;123309;1102;64950;-80
2021/03/18 07:39:15;;;;;;;12.37;6.80;;;;;;;-0.12;92.90;101739.78;123433;1105;64899;-80
2021/03/18 07:41:45;;;;;;;16.93;9.27;;;;;;;-0.04;93.23;101727.19;123403;1102;64894;-81
2021/03/18 07:44:14;;;;;;;13.95;7.50;;;;;;;-0.02;92.48;101727.95;123555;1102;64998;-79
2021/03/18 07:46:42;;;;;;;18.73;10.50;;;;;;;0.02;92.14;101725.16;123597;1105;65709;-80
2021/03/18 07:49:15;;;;;;;20.00;11.00;;;;;;;0.10;93.02;101733.44;123427;1102;64908;-80
2021/03/18 07:51:44;;;;;;;21.30;11.45;;;;;;;0.12;93.09;101721.15;123421;1105;64997;-78
2021/03/18 07:54:17;;;;;;;10.07;4.37;;;;;;;0.20;93.03;101718.98;123665;1105;66121;-81
2021/03/18 07:56:46;;;;;;;11.77;6.90;;;;;;;0.21;92.70;101723.25;123461;1102;64946;-81
2021/03/18 07:59:12;;;;;;;9.60;5.43;;;;;;;0.19;91.69;101727.72;123537;1105;64911;-80
2021/03/18 08:01:40;;;;;;;10.53;5.97;;;;;;;0.12;91.38;101736.80;123350;1105;64885;-80
2021/03/18 08:04:12;;;;;;;5.90;3.75;;;;;;;0.08;91.70;101725.67;123502;1106;64946;-80
2021/03/18 08:06:52;;;;;;;12.13;5.90;;;;;;;0.07;92.49;101726.62;123409;1105;65379;-80
2021/03/18 08:09:38;;;;;;;15.20;9.00;;;;;;;0.06;91.58;101729.30;123483;1105;66070;-80
2021/03/18 08:12:06;;;;;;;16.30;9.17;;;;;;;0.04;92.87;101726.77;123456;1102;65353;-79
2021/03/18 08:14:32;;;;;;;12.57;7.17;;;;;;;0.08;92.79;101735.28;123521;1102;65723;-78
2021/03/18 08:17:09;;;;;;;16.57;8.57;;;;;;;0.08;92.82;101730.06;123491;1102;65001;-79
2021/03/18 08:19:40;;;;;;;16.77;7.93;;;;;;;0.04;91.81;101728.54;123471;1102;64895;-79
2021/03/18 08:22:27;;;;;;;9.53;4.90;;;;;;;0.02;92.11;101732.99;123409;1105;65319;-81
2021/03/18 08:24:53;;;;;;;13.60;7.57;;;;;;;0.06;92.18;101737.12;123489;1105;64915;-79
2021/03/18 08:27:28;;;;;;;11.57;5.83;;;;;;;0.07;93.16;101744.05;123460;1105;64987;-80
2021/03/18 08:29:54;;;;;;;17.47;10.73;;;;;;;0.09;92.79;101742.20;123359;1105;64944;-77
2021/03/18 08:32:23;;;;;;;23.77;11.53;;;;;;;0.13;92.12;101738.50;123429;1105;65671;-78
2021/03/18 08:34:55;;;;;;;10.10;3.50;;;;;;;0.17;92.39;101734.78;123370;1102;65030;-77
2021/03/18 08:37:44;;;;;;;15.80;8.37;;;;;;;0.25;92.82;101732.61;123518;1105;65013;-81
2021/03/18 08:40:27;;;;;;;7.80;3.70;;;;;;;0.26;92.41;101739.53;123334;1101;64841;-78
2021/03/18 08:43:01;;;;;;;15.57;8.77;;;;;;;0.31;92.58;101732.28;123456;1102;65227;-78
2021/03/18 08:45:28;;;;;;;13.78;7.08;;;;;;;0.35;92.15;101739.02;123542;1103;64917;-80
2021/03/18 08:47:57;;;;;;;15.40;7.85;;;;;;;0.37;92.10;101733.72;123457;1105;65043;-80
2021/03/18 08:50:25;;;;;;;19.57;9.67;;;;;;;0.43;92.04;101730.78;123443;1105;64896;-78
2021/03/18 08:52:55;;;;;;;22.97;11.73;;;;;;;0.51;91.94;101727.73;123508;1102;64989;-80
2021/03/18 08:55:35;;;;;;;19.40;9.93;;;;;;;0.57;91.56;101722.18;123433;1105;64923;-80
2021/03/18 08:58:03;;;;;;;17.37;8.00;;;;;;;0.63;91.23;101715.78;123494;1105;66164;-78
2021/03/18 09:00:34;;;;;;;14.07;6.70;;;;;;;0.63;90.96;101721.84;123476;1102;64844;-79
2021/03/18 09:03:01;;;;;;;15.65;7.50;;;;;;;0.67;91.28;101723.36;123633;1102;66120;-80
2021/03/18 09:05:27;;;;;;;17.00;8.77;;;;;;;0.72;91.24;101720.48;123453;1102;64889;-78
2021/03/18 09:07:56;;;;;;;21.45;10.78;;;;;;;0.79;90.95;101722.67;123407;1103;65224;-80
2021/03/18 09:10:28;;;;;;;20.95;9.85;;;;;;;0.85;90.70;101723.25;123701;1102;64988;-80
2021/03/18 09:13:00;;;;;;;23.87;11.30;;;;;;;0.91;90.75;101720.30;123842;1105;65033;-79
2021/03/18 09:15:36;;;;;;;19.50;8.70;;;;;;;1.00;91.05;101725.02;123624;1103;65247;-80
2021/03/18 09:18:15;;;;;;;15.10;6.27;;;;;;;1.01;90.75;101727.52;123598;1102;64909;-81
2021/03/18 09:20:44;;;;;;;19.75;9.25;;;;;;;1.04;90.72;101721.27;123667;1102;64869;-80
2021/03/18 09:23:13;;;;;;;22.17;9.33;;;;;;;1.09;90.70;101719.25;123645;1102;65435;-79
2021/03/18 09:25:42;;;;;;;25.67;14.27;;;;;;;1.13;90.45;101718.14;123802;1105;65055;-79
2021/03/18 09:28:11;;;;;;;13.90;6.67;;;;;;;1.13;90.15;101710.30;123547;1105;65020;-77
2021/03/18 09:30:43;;;;;;;22.17;11.40;;;;;;;1.15;90.41;101715.45;123294;1103;64860;-78
2021/03/18 09:33:26;;;;;;;22.77;10.77;;;;;;;1.17;90.49;101706.59;123353;1105;64911;-78
2021/03/18 09:35:59;;;;;;;19.57;10.43;;;;;;;1.18;90.14;101707.42;123460;1105;64901;-78
2021/03/18 09:38:33;;;;;;;18.63;10.13;;;;;;;1.19;89.65;101707.34;123525;1105;65032;-79
2021/03/18 09:41:01;;;;;;;11.83;6.10;;;;;;;1.21;89.70;101712.45;123622;1105;64912;-81
2021/03/18 09:43:30;;;;;;;12.90;7.20;;;;;;;1.20;88.92;101714.23;123417;1102;65222;-80
2021/03/18 09:45:59;;;;;;;14.67;8.97;;;;;;;1.20;88.63;101722.08;123794;1105;65342;-78
2021/03/18 09:48:32;;;;;;;15.80;7.00;;;;;;;1.21;89.12;101708.09;123574;1105;66059;-81
2021/03/18 09:51:17;;;;;;;16.77;7.90;;;;;;;1.26;89.21;101704.37;123686;1102;64991;-78
2021/03/18 09:53:53;;;;;;;26.73;12.10;;;;;;;1.28;89.15;101708.57;123514;1102;64914;-78
2021/03/18 09:56:20;;;;;;;20.80;10.13;;;;;;;1.28;88.89;101707.73;123422;1105;64956;-77
2021/03/18 09:58:46;;;;;;;12.27;6.40;;;;;;;1.21;88.91;101710.70;123426;1102;64857;-78
2021/03/18 10:01:21;;;;;;;18.97;6.73;;;;;;;1.20;88.97;101703.78;123480;1105;64998;-78
2021/03/18 10:04:01;;;;;;;;;;;;;;;1.22;89.70;101708.92;123391;1102;64955;-79
2021/03/18 10:06:40;;;;;;;12.03;7.33;;;;;;;1.21;89.16;101713.32;123569;1103;64914;-79
2021/03/18 10:09:33;;;;;;;13.17;7.53;;;;;;;1.21;89.01;101710.70;123602;1105;64915;-80
2021/03/18 10:12:11;;;;;;;20.73;9.00;;;;;;;1.27;88.33;101711.27;123574;1102;64984;-80
2021/03/18 10:14:44;;;;;;;29.20;13.70;;;;;;;1.32;88.42;101709.21;123737;1105;64920;-80
2021/03/18 10:17:14;;;;;;;21.17;9.70;;;;;;;1.37;87.64;101700.18;125756;1102;65056;-78
2021/03/18 10:19:50;;;;;;;15.23;7.07;;;;;;;1.36;87.34;101701.13;124983;1102;65320;-80
2021/03/18 10:22:19;;;;;;;21.30;9.20;;;;;;;1.41;87.50;101693.00;125511;1102;64835;-80
2021/03/18 10:25:16;;;;;;;25.93;12.97;;;;;;;1.46;87.23;101685.72;124188;1104;64895;-80
2021/03/18 10:27:48;;;;;;;17.80;8.63;;;;;;;1.52;87.68;101689.75;123643;1105;64876;-82
2021/03/18 10:30:22;;;;;;;27.87;15.07;;;;;;;1.51;86.83;101694.14;123595;1106;65214;-80
2021/03/18 10:33:21;;;;;;;29.98;15.40;;;;;;;1.55;86.96;101681.70;123559;1103;64921;-81
2021/03/18 10:35:54;;;;;;;22.70;11.67;;;;;;;1.59;86.60;101685.82;123542;1105;64891;-81
2021/03/18 10:38:26;;;;;;;18.07;8.67;;;;;;;1.59;86.46;101681.45;123485;1103;64997;-79
2021/03/18 10:40:53;;;;;;;25.73;12.17;;;;;;;1.62;86.86;101675.19;123433;1105;64937;-80
2021/03/18 10:43:30;;;;;;;13.07;6.50;;;;;;;1.65;87.19;101674.16;123517;1105;65030;-79
2021/03/18 10:45:59;;;;;;;21.00;12.63;;;;;;;1.72;86.80;101680.69;123532;1105;64818;-79
2021/03/18 10:48:28;;;;;;;14.30;7.80;;;;;;;1.76;85.77;101666.49;123473;1105;64870;-79
2021/03/18 10:51:04;;;;;;;20.60;9.37;;;;;;;1.85;85.61;101673.80;123539;1102;64895;-79
2021/03/18 10:53:34;;;;;;;16.50;8.90;;;;;;;1.94;85.64;101681.07;123552;1102;64895;-78
2021/03/18 10:56:12;;;;;;;16.43;8.90;;;;;;;1.97;83.78;101670.40;123318;1105;64937;-80
2021/03/18 10:58:39;;;;;;;9.73;5.17;;;;;;;1.99;84.14;101667.69;123420;1102;64972;-80
2021/03/18 11:01:14;;;;;;;18.43;9.90;;;;;;;2.04;84.33;101671.72;123395;1105;64992;-77
2021/03/18 11:03:43;;;;;;;20.35;10.40;;;;;;;2.13;84.14;101664.23;123629;1106;64850;-77
2021/03/18 11:06:15;;;;;;;24.40;12.70;;;;;;;2.21;83.92;101656.70;123591;1105;66109;-77
2021/03/18 11:08:49;;;;;;;11.37;6.20;;;;;;;2.22;83.41;101645.31;123612;1105;65408;-76
2021/03/18 11:11:21;;;;;;;;;;;;;;;2.27;83.24;101645.02;123702;1105;64892;-76
2021/03/18 11:13:47;;;;;;;15.50;8.97;;;;;;;2.27;83.45;101640.61;123333;1104;65252;-77
2021/03/18 11:16:25;;;;;;;19.87;9.60;;;;;;;2.31;82.32;101641.27;123391;1105;64911;-76
2021/03/18 11:19:00;;;;;;;14.37;8.17;;;;;;;2.31;81.58;101636.86;123441;1105;64885;-76
2021/03/18 11:21:33;;;;;;;13.50;6.97;;;;;;;2.39;81.52;101634.59;123443;1103;65502;-77
2021/03/18 11:24:17;;;;;;;13.83;7.20;;;;;;;2.55;80.90;101628.36;123408;1105;64892;-77